createdAt,value
2022-10-17T00:01:57.000Z,9.6
2022-10-17T00:05:29.000Z,7
2022-10-17T00:09:02.000Z,10.7
2022-10-17T00:12:35.000Z,8.4
2022-10-17T00:16:07.000Z,8
2022-10-17T00:19:40.000Z,8
2022-10-17T00:23:12.000Z,8.2
2022-10-17T00:26:45.000Z,7.6
2022-10-17T00:29:36.000Z,20.1
2022-10-17T00:33:09.000Z,7.2
2022-10-17T00:36:41.000Z,7
2022-10-17T00:40:14.000Z,7.9
2022-10-17T00:43:46.000Z,5.2
2022-10-17T00:47:19.000Z,10
2022-10-17T00:50:52.000Z,7
2022-10-17T00:54:25.000Z,8.1
2022-10-17T00:57:58.000Z,4.8
2022-10-17T01:01:30.000Z,8.4
2022-10-17T01:05:03.000Z,12.1
2022-10-17T01:07:54.000Z,11.4
2022-10-17T01:11:27.000Z,4.3
2022-10-17T01:14:59.000Z,8.4
2022-10-17T01:18:32.000Z,8
2022-10-17T01:22:05.000Z,7.2
2022-10-17T01:25:37.000Z,11.6
2022-10-17T01:29:10.000Z,22.9
2022-10-17T01:32:43.000Z,52
2022-10-17T01:36:15.000Z,32.7
2022-10-17T01:39:48.000Z,30.9
2022-10-17T01:43:21.000Z,4.6
2022-10-17T01:46:12.000Z,7.4
2022-10-17T01:49:44.000Z,6.8
2022-10-17T01:53:17.000Z,4.7
2022-10-17T01:56:50.000Z,12.8
2022-10-17T02:00:22.000Z,4.4
2022-10-17T02:03:55.000Z,6
2022-10-17T02:07:27.000Z,4.7
2022-10-17T02:11:00.000Z,3.8
2022-10-17T02:14:33.000Z,4.3
2022-10-17T02:18:05.000Z,9.3
2022-10-17T02:21:38.000Z,3.6
2022-10-17T02:24:29.000Z,3.4
2022-10-17T02:28:02.000Z,5.4
2022-10-17T02:31:34.000Z,4.1
2022-10-17T02:35:07.000Z,5.1
2022-10-17T02:38:39.000Z,4.7
2022-10-17T02:42:12.000Z,7.5
2022-10-17T02:45:45.000Z,5.5
2022-10-17T02:49:17.000Z,7.6
2022-10-17T02:52:50.000Z,15.5
2022-10-17T02:56:23.000Z,7.8
2022-10-17T02:59:55.000Z,5.7
2022-10-17T03:02:46.000Z,9.6
2022-10-17T03:06:19.000Z,9.1
2022-10-17T03:09:52.000Z,15.5
2022-10-17T03:13:24.000Z,8.6
2022-10-17T03:17:02.000Z,7.6
2022-10-17T03:20:35.000Z,10.6
2022-10-17T03:24:07.000Z,5.7
2022-10-17T03:27:40.000Z,9.2
2022-10-17T03:31:13.000Z,8.6
2022-10-17T03:34:45.000Z,12.6
2022-10-17T03:38:18.000Z,7.7
2022-10-17T03:41:09.000Z,5.3
2022-10-17T03:44:42.000Z,9
2022-10-17T03:48:14.000Z,7.2
2022-10-17T03:51:47.000Z,5.3
2022-10-17T03:55:20.000Z,4.9
2022-10-17T03:58:52.000Z,9.2
2022-10-17T04:02:25.000Z,10.7
2022-10-17T04:05:58.000Z,8.3
2022-10-17T04:09:30.000Z,7.9
2022-10-17T04:13:03.000Z,5.1
2022-10-17T04:16:36.000Z,5.4
2022-10-17T04:19:26.000Z,8
2022-10-17T04:22:59.000Z,9.3
2022-10-17T04:26:32.000Z,9.8
2022-10-17T04:30:04.000Z,8.5
2022-10-17T04:33:37.000Z,12.5
2022-10-17T04:37:10.000Z,9.1
2022-10-17T04:40:42.000Z,10.1
2022-10-17T04:44:15.000Z,10.8
2022-10-17T04:47:47.000Z,7.3
2022-10-17T04:51:20.000Z,10.1
2022-10-17T04:54:53.000Z,10.1
2022-10-17T04:57:44.000Z,10.2
2022-10-17T05:01:16.000Z,3.9
2022-10-17T05:04:49.000Z,9.5
2022-10-17T05:08:22.000Z,6.5
2022-10-17T05:11:54.000Z,6.7
2022-10-17T05:15:31.000Z,11.9
2022-10-17T05:19:04.000Z,8.7
2022-10-17T05:22:37.000Z,8.2
2022-10-17T05:26:09.000Z,5.9
2022-10-17T05:29:42.000Z,7.4
2022-10-17T05:33:15.000Z,10.4
2022-10-17T05:36:05.000Z,9.9
2022-10-17T05:39:38.000Z,8.2
2022-10-17T05:43:16.000Z,6.1
2022-10-17T05:46:49.000Z,11.8
2022-10-17T05:50:22.000Z,5.1
2022-10-17T05:53:54.000Z,13.8
2022-10-17T05:57:27.000Z,6.2
2022-10-17T06:01:00.000Z,6.6
2022-10-17T06:04:38.000Z,6.1
2022-10-17T06:08:10.000Z,8.6
2022-10-17T06:11:44.000Z,7.7
2022-10-17T06:14:35.000Z,6.6
2022-10-17T06:18:08.000Z,10.9
2022-10-17T06:21:40.000Z,10.2
2022-10-17T06:25:13.000Z,7.1
2022-10-17T06:28:45.000Z,10.2
2022-10-17T06:32:18.000Z,12.6
2022-10-17T06:35:51.000Z,8
2022-10-17T06:39:23.000Z,11.1
2022-10-17T06:42:56.000Z,7.2
2022-10-17T06:46:29.000Z,8.8
2022-10-17T06:50:01.000Z,13.8
2022-10-17T06:52:53.000Z,11.3
2022-10-17T06:56:25.000Z,9.1
2022-10-17T06:59:58.000Z,9
2022-10-17T07:03:30.000Z,12.3
2022-10-17T07:07:03.000Z,9.1
2022-10-17T07:10:35.000Z,7.2
2022-10-17T07:14:08.000Z,11.3
2022-10-17T07:17:41.000Z,20.9
2022-10-17T07:21:14.000Z,19.5
2022-10-17T07:24:46.000Z,19.6
2022-10-17T07:28:19.000Z,15.8
2022-10-17T07:31:10.000Z,17.9
2022-10-17T07:34:43.000Z,14.8
2022-10-17T07:38:16.000Z,12.9
2022-10-17T07:41:48.000Z,23.9
2022-10-17T07:45:21.000Z,12
2022-10-17T07:48:53.000Z,11.2
2022-10-17T07:52:26.000Z,12.8
2022-10-17T07:55:59.000Z,12.4
2022-10-17T07:59:31.000Z,10.4
2022-10-17T08:03:08.000Z,16
2022-10-17T08:06:40.000Z,14.9
2022-10-17T08:09:36.000Z,15.2
2022-10-17T08:13:09.000Z,13.2
2022-10-17T08:16:42.000Z,13.4
2022-10-17T08:20:14.000Z,9
2022-10-17T08:23:47.000Z,12.9
2022-10-17T08:27:19.000Z,9.1
2022-10-17T08:30:52.000Z,9.4
2022-10-17T08:34:25.000Z,10.6
2022-10-17T08:37:58.000Z,8
2022-10-17T08:41:30.000Z,7.4
2022-10-17T08:45:03.000Z,6.8
2022-10-17T08:47:54.000Z,8.4
2022-10-17T08:51:27.000Z,10.4
2022-10-17T08:55:00.000Z,8.3
2022-10-17T08:58:47.000Z,7.3
2022-10-17T09:02:19.000Z,9.3
2022-10-17T09:05:52.000Z,6.8
2022-10-17T09:09:25.000Z,8.5
2022-10-17T09:12:57.000Z,6.4
2022-10-17T09:16:33.000Z,8.9
2022-10-17T09:20:05.000Z,6.7
2022-10-17T09:23:38.000Z,7.4
2022-10-17T09:26:29.000Z,6.5
2022-10-17T09:30:02.000Z,4.9
2022-10-17T09:33:58.000Z,6.9
2022-10-17T09:37:31.000Z,5.5
2022-10-17T09:41:03.000Z,4.5
2022-10-17T09:45:08.000Z,5.8
2022-10-17T09:48:41.000Z,6.1
2022-10-17T09:52:18.000Z,6
2022-10-17T09:55:51.000Z,4.3
2022-10-17T09:59:23.000Z,3.5
2022-10-17T10:02:56.000Z,4.2
2022-10-17T10:05:47.000Z,4.9
2022-10-17T10:09:26.000Z,4.9
2022-10-17T10:13:04.000Z,5.4
2022-10-17T10:16:37.000Z,6.3
2022-10-17T10:20:09.000Z,4.4
2022-10-17T10:23:45.000Z,6.2
2022-10-17T10:27:17.000Z,3.4
2022-10-17T10:30:50.000Z,6.4
2022-10-17T10:34:23.000Z,11.5
2022-10-17T10:37:56.000Z,5
2022-10-17T10:41:28.000Z,6.2
2022-10-17T10:44:19.000Z,8.2
2022-10-17T10:47:52.000Z,4.5
2022-10-17T10:51:24.000Z,6.4
2022-10-17T10:54:57.000Z,5.1
2022-10-17T10:58:30.000Z,5.8
2022-10-17T11:02:07.000Z,4.1
2022-10-17T11:05:39.000Z,4.6
2022-10-17T11:09:12.000Z,4.8
2022-10-17T11:12:45.000Z,8.7
2022-10-17T11:16:17.000Z,4.6
2022-10-17T11:19:50.000Z,4.4
2022-10-17T11:22:41.000Z,10.7
2022-10-17T11:26:14.000Z,4.2
2022-10-17T11:29:47.000Z,3
2022-10-17T11:33:19.000Z,5.2
2022-10-17T11:36:52.000Z,5.2
2022-10-17T11:40:24.000Z,4.9
2022-10-17T11:44:01.000Z,8
2022-10-17T11:47:34.000Z,7.8
2022-10-17T11:55:09.000Z,7.5
2022-10-17T11:58:43.000Z,8
2022-10-17T12:01:34.000Z,6.2
2022-10-17T12:05:07.000Z,6.1
2022-10-17T12:08:40.000Z,6.6
2022-10-17T12:12:12.000Z,5.2
2022-10-17T12:15:46.000Z,3.6
2022-10-17T12:19:18.000Z,7.9
2022-10-17T12:22:51.000Z,4.4
2022-10-17T12:26:23.000Z,6.7
2022-10-17T12:29:56.000Z,5.7
2022-10-17T12:33:33.000Z,4.1
2022-10-17T12:37:05.000Z,6
2022-10-17T12:39:56.000Z,6
2022-10-17T12:43:29.000Z,4
2022-10-17T12:47:06.000Z,5.7
2022-10-17T12:50:39.000Z,5.6
2022-10-17T12:54:12.000Z,4.4
2022-10-17T12:57:44.000Z,5.3
2022-10-17T13:01:17.000Z,4
2022-10-17T13:04:50.000Z,5
2022-10-17T13:08:23.000Z,4.8
2022-10-17T13:11:56.000Z,8.6
2022-10-17T13:15:28.000Z,6.9
2022-10-17T13:18:19.000Z,5.7
2022-10-17T13:21:52.000Z,5.7
2022-10-17T13:25:31.000Z,4.7
2022-10-17T13:29:04.000Z,5.7
2022-10-17T13:32:37.000Z,12.4
2022-10-17T13:36:10.000Z,4.7
2022-10-17T13:39:42.000Z,6.1
2022-10-17T13:43:35.000Z,6.7
2022-10-17T13:47:07.000Z,4.7
2022-10-17T13:50:40.000Z,9.3
2022-10-17T13:54:13.000Z,6.7
2022-10-17T13:57:04.000Z,19.8
2022-10-17T14:00:37.000Z,9.7
2022-10-17T14:04:09.000Z,8.6
2022-10-17T14:07:45.000Z,7.8
2022-10-17T14:11:37.000Z,6.2
2022-10-17T14:15:10.000Z,5.9
2022-10-17T14:18:42.000Z,9.1
2022-10-17T14:22:56.000Z,6.5
2022-10-17T14:26:48.000Z,7
2022-10-17T14:30:21.000Z,7
2022-10-17T14:34:20.000Z,10.3
2022-10-17T14:37:12.000Z,5.8
2022-10-17T14:40:44.000Z,10.6
2022-10-17T14:44:17.000Z,8.3
2022-10-17T14:47:50.000Z,7.9
2022-10-17T14:51:23.000Z,5.4
2022-10-17T14:55:16.000Z,8.3
2022-10-17T14:58:48.000Z,7.2
2022-10-17T15:02:21.000Z,7.3
2022-10-17T15:05:54.000Z,8.5
2022-10-17T15:09:27.000Z,6.9
2022-10-17T15:13:00.000Z,6.5
2022-10-17T15:16:14.000Z,10.2
2022-10-17T15:19:47.000Z,8
2022-10-17T15:23:36.000Z,6.2
2022-10-17T15:27:08.000Z,6.9
2022-10-17T15:30:41.000Z,6.5
2022-10-17T15:34:14.000Z,8.1
2022-10-17T15:37:46.000Z,12
2022-10-17T15:41:19.000Z,9.1
2022-10-17T15:44:52.000Z,7
2022-10-17T15:48:25.000Z,11.2
2022-10-17T15:51:57.000Z,4.5
2022-10-17T15:54:48.000Z,6.6
2022-10-17T15:58:26.000Z,7.5
2022-10-17T16:01:58.000Z,7.4
2022-10-17T16:05:31.000Z,4.9
2022-10-17T16:09:04.000Z,9.2
2022-10-17T16:12:36.000Z,11.4
2022-10-17T16:16:09.000Z,6.5
2022-10-17T16:19:42.000Z,7.8
2022-10-17T16:23:14.000Z,12.3
2022-10-17T16:26:47.000Z,4.9
2022-10-17T16:30:20.000Z,7.1
2022-10-17T16:33:11.000Z,6.2
2022-10-17T16:36:44.000Z,7.6
2022-10-17T16:40:16.000Z,8.2
2022-10-17T16:43:54.000Z,11.9
2022-10-17T16:47:27.000Z,10.4
2022-10-17T16:51:00.000Z,11.7
2022-10-17T16:54:32.000Z,11.7
2022-10-17T16:58:05.000Z,14.9
2022-10-17T17:01:37.000Z,7.8
2022-10-17T17:05:10.000Z,8.6
2022-10-17T17:08:44.000Z,11.7
2022-10-17T17:11:35.000Z,15
2022-10-17T17:15:08.000Z,10.6
2022-10-17T17:18:40.000Z,9.1
2022-10-17T17:22:13.000Z,8.5
2022-10-17T17:25:45.000Z,8.4
2022-10-17T17:29:18.000Z,11.3
2022-10-17T17:32:51.000Z,7.1
2022-10-17T17:36:23.000Z,11.1
2022-10-17T17:39:56.000Z,8.5
2022-10-17T17:43:29.000Z,9
2022-10-17T17:47:01.000Z,5.5
2022-10-17T17:49:52.000Z,12
2022-10-17T17:53:28.000Z,10.6
2022-10-17T17:57:00.000Z,9.3
2022-10-17T18:00:33.000Z,8.5
2022-10-17T18:04:06.000Z,11.4
2022-10-17T18:07:38.000Z,14.3
2022-10-17T18:11:11.000Z,9.3
2022-10-17T18:14:47.000Z,14.5
2022-10-17T18:18:19.000Z,11
2022-10-17T18:21:52.000Z,12.1
2022-10-17T18:25:25.000Z,13.8
2022-10-17T18:28:16.000Z,11.1
2022-10-17T18:31:49.000Z,12.5
2022-10-17T18:35:21.000Z,9.4
2022-10-17T18:38:54.000Z,15.8
2022-10-17T18:42:27.000Z,10.7
2022-10-17T18:46:00.000Z,13.5
2022-10-17T18:49:39.000Z,8.3
2022-10-17T18:53:12.000Z,13.2
2022-10-17T18:56:45.000Z,13.7
2022-10-17T19:00:17.000Z,11.6
2022-10-17T19:03:50.000Z,13.5
2022-10-17T19:06:41.000Z,11.3
2022-10-17T19:10:14.000Z,8.1
2022-10-17T19:13:47.000Z,15.1
2022-10-17T19:17:24.000Z,13.3
2022-10-17T19:20:57.000Z,13.4
2022-10-17T19:24:30.000Z,12.4
2022-10-17T19:28:02.000Z,10.2
2022-10-17T19:31:35.000Z,12.1
2022-10-17T19:35:08.000Z,9.8
2022-10-17T19:38:40.000Z,14.2
2022-10-17T19:42:13.000Z,9.7
2022-10-17T19:45:04.000Z,10.1
2022-10-17T19:48:37.000Z,11.8
2022-10-17T19:52:09.000Z,12.8
2022-10-17T19:55:42.000Z,9.4
2022-10-17T19:59:14.000Z,12.4
2022-10-17T20:02:47.000Z,11.5
2022-10-17T20:06:20.000Z,12.5
2022-10-17T20:09:52.000Z,15.1
2022-10-17T20:13:25.000Z,13.3
2022-10-17T20:16:58.000Z,13.4
2022-10-17T20:20:30.000Z,10.7
2022-10-17T20:23:21.000Z,8.7
2022-10-17T20:26:54.000Z,16
2022-10-17T20:30:27.000Z,15.8
2022-10-17T20:33:59.000Z,19.2
2022-10-17T20:37:32.000Z,12.5
2022-10-17T20:41:07.000Z,10.6
2022-10-17T20:44:40.000Z,17.8
2022-10-17T20:48:34.000Z,11.1
2022-10-17T20:52:07.000Z,14.8
2022-10-17T20:55:40.000Z,12.5
2022-10-17T20:59:13.000Z,17.3
2022-10-17T21:02:04.000Z,15.8
2022-10-17T21:05:42.000Z,22.6
2022-10-17T21:09:15.000Z,11
2022-10-17T21:12:47.000Z,16.1
2022-10-17T21:16:20.000Z,12.7
2022-10-17T21:19:53.000Z,17.1
2022-10-17T21:23:26.000Z,15
2022-10-17T21:26:58.000Z,12.1
2022-10-17T21:30:31.000Z,12.2
2022-10-17T21:34:23.000Z,12.3
2022-10-17T21:37:56.000Z,12.2
2022-10-17T21:40:47.000Z,15.2
2022-10-17T21:44:21.000Z,15.4
2022-10-17T21:47:54.000Z,14
2022-10-17T21:51:37.000Z,18.7
2022-10-17T21:55:10.000Z,16.1
2022-10-17T21:58:43.000Z,15.6
2022-10-17T22:02:15.000Z,17.3
2022-10-17T22:05:48.000Z,20.4
2022-10-17T22:09:43.000Z,18.8
2022-10-17T22:13:16.000Z,14.8
2022-10-17T22:16:49.000Z,13
2022-10-17T22:19:40.000Z,13.3
2022-10-17T22:23:12.000Z,11.5
2022-10-17T22:26:45.000Z,12.8
2022-10-17T22:30:17.000Z,19
2022-10-17T22:33:50.000Z,15.5
2022-10-17T22:37:23.000Z,11.5
2022-10-17T22:40:56.000Z,14
2022-10-17T22:44:28.000Z,14.6
2022-10-17T22:48:01.000Z,14.4
2022-10-17T22:51:34.000Z,12.8
2022-10-17T22:55:06.000Z,17.6
2022-10-17T22:57:57.000Z,10.6
2022-10-17T23:01:30.000Z,17.5
2022-10-17T23:05:02.000Z,17
2022-10-17T23:08:35.000Z,10.7
2022-10-17T23:12:07.000Z,16.1
2022-10-17T23:15:40.000Z,14.7
2022-10-17T23:19:13.000Z,13
2022-10-17T23:22:45.000Z,12.6
2022-10-17T23:26:18.000Z,12
2022-10-17T23:29:50.000Z,15.8
2022-10-17T23:33:23.000Z,19.7
2022-10-17T23:36:14.000Z,19.5
2022-10-17T23:39:47.000Z,13.2
2022-10-17T23:43:19.000Z,13.8
2022-10-17T23:46:52.000Z,15.6
2022-10-17T23:50:25.000Z,13.3
2022-10-17T23:53:57.000Z,14.3
2022-10-17T23:57:30.000Z,13.8
